createdAt,value
2018-04-23T00:00:48.879Z,21.78
2018-04-23T00:01:48.898Z,21.80
2018-04-23T00:02:48.935Z,21.75
2018-04-23T00:03:48.934Z,21.80
2018-04-23T00:04:48.973Z,21.75
2018-04-23T00:05:48.952Z,21.68
2018-04-23T00:06:48.958Z,21.66
2018-04-23T00:07:49.026Z,21.74
2018-04-23T00:08:48.990Z,21.70
2018-04-23T00:09:48.992Z,21.69
2018-04-23T00:10:49.055Z,21.68
2018-04-23T00:11:49.027Z,21.70
2018-04-23T00:12:49.106Z,21.68
2018-04-23T00:13:49.062Z,21.69
2018-04-23T00:14:49.078Z,21.65
2018-04-23T00:15:49.136Z,21.68
2018-04-23T00:16:49.106Z,21.69
2018-04-23T00:17:49.118Z,21.72
2018-04-23T00:18:49.146Z,21.68
2018-04-23T00:19:49.145Z,21.63
2018-04-23T00:20:49.189Z,21.62
2018-04-23T00:21:49.176Z,21.63
2018-04-23T00:22:49.185Z,21.62
2018-04-23T00:23:49.255Z,21.60
2018-04-23T00:24:49.221Z,21.62
2018-04-23T00:25:49.249Z,21.60
2018-04-23T00:26:49.236Z,21.66
2018-04-23T00:27:49.260Z,21.68
2018-04-23T00:28:49.318Z,21.65
2018-04-23T00:29:49.286Z,21.58
2018-04-23T00:30:49.304Z,21.62
2018-04-23T00:31:49.311Z,21.62
2018-04-23T00:32:49.325Z,21.62
2018-04-23T00:33:49.388Z,21.68
2018-04-23T00:34:49.356Z,21.62
2018-04-23T00:35:49.373Z,21.58
2018-04-23T00:36:49.374Z,21.65
2018-04-23T00:37:49.386Z,21.60
2018-04-23T00:38:49.446Z,21.62
2018-04-23T00:39:49.456Z,21.65
2018-04-23T00:40:49.451Z,21.62
2018-04-23T00:41:49.440Z,21.65
2018-04-23T00:42:49.476Z,21.62
2018-04-23T00:43:49.529Z,21.58
2018-04-23T00:44:49.518Z,21.56
2018-04-23T00:45:49.509Z,21.58
2018-04-23T00:46:49.520Z,21.59
2018-04-23T00:47:49.575Z,21.59
2018-04-23T00:48:49.559Z,21.54
2018-04-23T00:49:49.571Z,21.60
2018-04-23T00:50:49.584Z,21.44
2018-04-23T00:51:49.602Z,21.51
2018-04-23T00:52:49.636Z,21.48
2018-04-23T00:53:49.624Z,21.51
2018-04-23T00:54:49.647Z,21.48
2018-04-23T00:55:49.683Z,21.50
2018-04-23T00:56:49.651Z,21.50
2018-04-23T00:57:49.675Z,21.56
2018-04-23T00:58:49.696Z,21.53
2018-04-23T00:59:49.724Z,21.40
2018-04-23T01:00:49.740Z,21.41
2018-04-23T01:01:49.765Z,21.44
2018-04-23T01:02:49.761Z,21.44
2018-04-23T01:03:49.770Z,21.47
2018-04-23T01:04:49.801Z,21.45
2018-04-23T01:05:49.826Z,21.47
2018-04-23T01:06:49.810Z,21.53
2018-04-23T01:07:49.822Z,21.43
2018-04-23T01:08:49.836Z,21.38
2018-04-23T01:09:49.891Z,21.37
2018-04-23T01:10:49.915Z,21.43
2018-04-23T01:11:49.867Z,21.38
2018-04-23T01:12:49.881Z,21.37
2018-04-23T01:13:49.887Z,21.35
2018-04-23T01:14:49.911Z,21.40
2018-04-23T01:15:49.972Z,21.33
2018-04-23T01:16:49.949Z,21.33
2018-04-23T01:17:49.995Z,21.32
2018-04-23T01:18:49.974Z,21.30
2018-04-23T01:19:49.996Z,21.33
2018-04-23T01:20:49.994Z,21.29
2018-04-23T01:21:50.048Z,21.30
2018-04-23T01:22:50.065Z,21.28
2018-04-23T01:23:50.082Z,21.32
2018-04-23T01:24:50.056Z,21.26
2018-04-23T01:25:50.091Z,21.29
2018-04-23T01:26:50.087Z,21.30
2018-04-23T01:27:50.125Z,21.26
2018-04-23T01:28:50.145Z,21.29
2018-04-23T01:29:50.129Z,21.23
2018-04-23T01:30:50.160Z,21.23
2018-04-23T01:31:50.152Z,21.23
2018-04-23T01:32:50.213Z,21.22
2018-04-23T01:33:50.164Z,21.13
2018-04-23T01:34:50.215Z,21.19
2018-04-23T01:35:50.225Z,21.22
2018-04-23T01:36:50.235Z,21.23
2018-04-23T01:37:50.291Z,21.15
2018-04-23T01:38:50.280Z,21.26
2018-04-23T01:39:50.399Z,21.20
2018-04-23T01:40:50.265Z,21.22
2018-04-23T01:41:50.284Z,21.14
2018-04-23T01:42:50.310Z,21.20
2018-04-23T01:43:50.333Z,21.20
2018-04-23T01:44:50.344Z,21.19
2018-04-23T01:45:50.423Z,21.17
2018-04-23T01:46:50.360Z,21.15
2018-04-23T01:47:50.396Z,21.15
2018-04-23T01:48:50.424Z,21.15
2018-04-23T01:49:50.412Z,21.08
2018-04-23T01:50:50.441Z,21.04
2018-04-23T01:51:50.429Z,21.04
2018-04-23T01:52:50.444Z,21.05
2018-04-23T01:53:50.443Z,21.05
2018-04-23T01:54:50.497Z,21.04
2018-04-23T01:55:50.514Z,21.07
2018-04-23T01:56:50.504Z,21.04
2018-04-23T01:57:50.509Z,21.04
2018-04-23T01:58:50.556Z,20.98
2018-04-23T01:59:50.541Z,21.07
2018-04-23T02:00:50.579Z,21.04
2018-04-23T02:01:50.571Z,20.93
2018-04-23T02:02:50.603Z,21.01
2018-04-23T02:03:50.582Z,20.90
2018-04-23T02:04:50.612Z,20.98
2018-04-23T02:05:50.652Z,20.95
2018-04-23T02:06:50.641Z,20.92
2018-04-23T02:07:50.644Z,20.93
2018-04-23T02:08:50.656Z,20.93
2018-04-23T02:09:50.720Z,21.01
2018-04-23T02:10:50.680Z,20.86
2018-04-23T02:11:50.714Z,20.90
2018-04-23T02:12:50.722Z,20.86
2018-04-23T02:13:50.728Z,20.90
2018-04-23T02:14:50.804Z,20.95
2018-04-23T02:15:50.749Z,20.88
2018-04-23T02:16:50.765Z,20.89
2018-04-23T02:17:50.774Z,20.90
2018-04-23T02:18:50.808Z,20.95
2018-04-23T02:19:50.837Z,20.92
2018-04-23T02:20:50.831Z,20.86
2018-04-23T02:21:50.848Z,20.96
2018-04-23T02:22:50.907Z,20.98
2018-04-23T02:23:50.859Z,20.98
2018-04-23T02:24:50.926Z,20.90
2018-04-23T02:25:50.938Z,20.92
2018-04-23T02:26:50.919Z,21.00
2018-04-23T02:27:50.953Z,20.92
2018-04-23T02:28:50.962Z,20.96
2018-04-23T02:29:50.954Z,20.93
2018-04-23T02:30:50.959Z,20.93
2018-04-23T02:31:50.981Z,21.00
2018-04-23T02:32:51.026Z,20.90
2018-04-23T02:33:50.993Z,20.95
2018-04-23T02:34:51.014Z,20.88
2018-04-23T02:35:51.039Z,20.88
2018-04-23T02:36:51.054Z,20.92
2018-04-23T02:37:51.110Z,20.88
2018-04-23T02:38:51.070Z,20.83
2018-04-23T02:39:51.139Z,20.82
2018-04-23T02:40:51.089Z,20.83
2018-04-23T02:41:51.129Z,20.78
2018-04-23T02:42:51.136Z,20.85
2018-04-23T02:43:51.178Z,20.78
2018-04-23T02:44:51.206Z,20.78
2018-04-23T02:45:51.170Z,20.78
2018-04-23T02:46:51.176Z,20.77
2018-04-23T02:47:51.183Z,20.77
2018-04-23T02:48:51.248Z,20.71
2018-04-23T02:49:51.217Z,20.78
2018-04-23T02:50:51.258Z,20.71
2018-04-23T02:51:51.247Z,20.73
2018-04-23T02:52:51.267Z,20.67
2018-04-23T02:53:51.321Z,20.63
2018-04-23T02:54:51.307Z,20.58
2018-04-23T02:55:51.293Z,20.70
2018-04-23T02:56:51.308Z,20.63
2018-04-23T02:57:51.341Z,20.66
2018-04-23T02:58:51.378Z,20.67
2018-04-23T02:59:51.404Z,20.63
2018-04-23T03:00:51.364Z,20.56
2018-04-23T03:01:51.386Z,20.56
2018-04-23T03:02:51.387Z,20.58
2018-04-23T03:03:51.414Z,20.59
2018-04-23T03:04:51.456Z,20.59
2018-04-23T03:05:51.451Z,20.53
2018-04-23T03:06:51.487Z,20.49
2018-04-23T03:07:51.513Z,20.46
2018-04-23T03:08:51.479Z,20.50
2018-04-23T03:09:51.497Z,20.44
2018-04-23T03:10:51.498Z,20.49
2018-04-23T03:11:51.555Z,20.48
2018-04-23T03:12:51.558Z,20.50
2018-04-23T03:13:51.562Z,20.52
2018-04-23T03:14:51.606Z,20.39
2018-04-23T03:15:51.579Z,20.42
2018-04-23T03:16:51.604Z,20.34
2018-04-23T03:17:51.636Z,20.42
2018-04-23T03:18:51.639Z,20.36
2018-04-23T03:19:51.625Z,20.39
2018-04-23T03:20:51.664Z,20.33
2018-04-23T03:21:51.648Z,20.44
2018-04-23T03:22:51.718Z,20.36
2018-04-23T03:23:51.728Z,20.36
2018-04-23T03:24:51.695Z,20.34
2018-04-23T03:25:51.709Z,20.29
2018-04-23T03:26:51.713Z,20.30
2018-04-23T03:27:51.760Z,20.30
2018-04-23T03:28:51.804Z,20.36
2018-04-23T03:29:51.773Z,20.37
2018-04-23T03:30:51.837Z,20.37
2018-04-23T03:31:51.807Z,20.33
2018-04-23T03:32:51.792Z,20.32
2018-04-23T03:33:51.858Z,20.30
2018-04-23T03:34:51.821Z,20.32
2018-04-23T03:35:51.877Z,20.19
2018-04-23T03:36:51.861Z,20.19
2018-04-23T03:37:51.871Z,20.22
2018-04-23T03:38:51.884Z,20.26
2018-04-23T03:39:51.892Z,20.26
2018-04-23T03:40:51.955Z,20.21
2018-04-23T03:41:51.916Z,20.24
2018-04-23T03:42:51.946Z,20.22
2018-04-23T03:43:51.955Z,20.21
2018-04-23T03:44:51.966Z,20.22
2018-04-23T03:45:52.016Z,20.18
2018-04-23T03:46:51.994Z,20.07
2018-04-23T03:47:52.002Z,20.14
2018-04-23T03:48:52.016Z,20.14
2018-04-23T03:49:52.053Z,20.10
2018-04-23T03:50:52.083Z,20.11
2018-04-23T03:51:52.071Z,20.21
2018-04-23T03:52:52.069Z,20.19
2018-04-23T03:53:52.094Z,20.14
2018-04-23T03:54:52.087Z,20.24
2018-04-23T03:55:52.144Z,20.15
2018-04-23T03:56:52.139Z,20.21
2018-04-23T03:57:52.155Z,20.21
2018-04-23T03:58:52.161Z,20.19
2018-04-23T03:59:52.155Z,20.21
2018-04-23T04:00:52.234Z,20.14
2018-04-23T04:01:52.238Z,20.07
2018-04-23T04:02:52.208Z,20.10
2018-04-23T04:03:52.246Z,20.08
2018-04-23T04:04:52.254Z,20.15
2018-04-23T04:05:52.280Z,20.12
2018-04-23T04:06:52.252Z,20.08
2018-04-23T04:07:52.269Z,20.22
2018-04-23T04:08:52.303Z,20.14
2018-04-23T04:09:52.298Z,20.11
2018-04-23T04:10:52.352Z,20.11
2018-04-23T04:11:52.367Z,20.10
2018-04-23T04:12:52.332Z,20.17
2018-04-23T04:13:52.349Z,20.10
2018-04-23T04:14:52.375Z,20.14
2018-04-23T04:15:52.365Z,20.10
2018-04-23T04:16:52.474Z,20.08
2018-04-23T04:17:52.397Z,20.07
2018-04-23T04:18:52.417Z,20.10
2018-04-23T04:19:52.430Z,20.14
2018-04-23T04:20:52.451Z,20.10
2018-04-23T04:21:52.478Z,20.10
2018-04-23T04:22:52.514Z,20.14
2018-04-23T04:23:52.538Z,20.14
2018-04-23T04:24:52.539Z,20.18
2018-04-23T04:25:52.511Z,20.08
2018-04-23T04:26:52.542Z,20.21
2018-04-23T04:27:52.524Z,20.15
2018-04-23T04:28:52.589Z,20.12
2018-04-23T04:29:52.569Z,20.18
2018-04-23T04:30:52.607Z,20.11
2018-04-23T04:31:52.592Z,20.21
2018-04-23T04:32:52.619Z,20.04
2018-04-23T04:33:52.658Z,20.18
2018-04-23T04:34:52.646Z,20.18
2018-04-23T04:35:52.633Z,20.15
2018-04-23T04:36:52.692Z,20.22
2018-04-23T04:37:52.671Z,20.19
2018-04-23T04:38:52.687Z,20.21
2018-04-23T04:39:52.730Z,20.21
2018-04-23T04:40:52.711Z,20.24
2018-04-23T04:41:52.772Z,20.21
2018-04-23T04:42:52.732Z,20.21
2018-04-23T04:43:52.764Z,20.30
2018-04-23T04:44:52.754Z,20.32
2018-04-23T04:45:52.797Z,20.34
2018-04-23T04:46:52.830Z,20.39
2018-04-23T04:47:52.800Z,20.52
2018-04-23T04:48:52.819Z,20.52
2018-04-23T04:49:52.890Z,20.48
2018-04-23T04:50:52.842Z,20.64
2018-04-23T04:51:52.936Z,20.59
2018-04-23T04:52:52.861Z,20.74
2018-04-23T04:53:52.913Z,20.86
2018-04-23T04:54:52.892Z,20.89
2018-04-23T04:55:52.909Z,20.90
2018-04-23T04:56:52.927Z,21.10
2018-04-23T04:57:52.930Z,21.11
2018-04-23T04:58:52.990Z,21.25
2018-04-23T04:59:52.970Z,21.37
2018-04-23T05:00:52.976Z,21.43
2018-04-23T05:01:53.008Z,21.53
2018-04-23T05:02:53.019Z,21.70
2018-04-23T05:03:53.067Z,21.81
2018-04-23T05:04:53.035Z,21.84
2018-04-23T05:05:53.098Z,22.00
2018-04-23T05:06:53.058Z,22.14
2018-04-23T05:07:53.096Z,22.16
2018-04-23T05:08:53.130Z,22.21
2018-04-23T05:09:53.110Z,22.28
2018-04-23T05:10:53.118Z,22.52
2018-04-23T05:11:53.158Z,22.62
2018-04-23T05:12:53.141Z,22.81
2018-04-23T05:13:53.201Z,22.95
2018-04-23T05:14:53.187Z,23.17
2018-04-23T05:15:53.179Z,23.29
2018-04-23T05:16:53.216Z,23.40
2018-04-23T05:17:53.223Z,23.52
2018-04-23T05:18:53.277Z,23.49
2018-04-23T05:19:53.268Z,23.63
2018-04-23T05:20:53.292Z,23.70
2018-04-23T05:21:53.303Z,23.84
2018-04-23T05:22:53.354Z,23.88
2018-04-23T05:23:53.393Z,23.89
2018-04-23T05:24:53.328Z,23.92
2018-04-23T05:25:53.333Z,23.88
2018-04-23T05:26:53.362Z,23.86
2018-04-23T05:27:53.397Z,23.82
2018-04-23T05:28:53.391Z,23.95
2018-04-23T05:29:53.405Z,23.92
2018-04-23T05:30:53.456Z,23.89
2018-04-23T05:31:53.433Z,23.96
2018-04-23T05:32:53.453Z,24.03
2018-04-23T05:33:53.468Z,23.94
2018-04-23T05:34:53.488Z,23.95
2018-04-23T05:35:53.537Z,24.03
2018-04-23T05:36:53.564Z,24.04
2018-04-23T05:37:53.536Z,24.01
2018-04-23T05:38:53.540Z,23.96
2018-04-23T05:39:53.548Z,24.01
2018-04-23T05:40:53.576Z,23.94
2018-04-23T05:41:53.639Z,23.94
2018-04-23T05:42:53.612Z,23.81
2018-04-23T05:43:53.643Z,23.77
2018-04-23T05:44:53.663Z,23.74
2018-04-23T05:45:53.682Z,23.70
2018-04-23T05:46:53.668Z,23.77
2018-04-23T05:47:53.679Z,23.81
2018-04-23T05:48:53.749Z,23.70
2018-04-23T05:49:53.720Z,23.69
2018-04-23T05:50:53.738Z,23.74
2018-04-23T05:51:53.785Z,23.64
2018-04-23T05:52:53.809Z,23.73
2018-04-23T05:53:53.778Z,23.69
2018-04-23T05:54:53.780Z,23.64
2018-04-23T05:55:53.805Z,23.62
2018-04-23T05:56:53.849Z,23.56
2018-04-23T05:57:53.859Z,23.54
2018-04-23T05:58:53.928Z,23.51
2018-04-23T05:59:53.859Z,23.45
2018-04-23T06:00:53.872Z,23.47
2018-04-23T06:01:53.913Z,23.40
2018-04-23T06:02:53.917Z,23.40
2018-04-23T06:03:53.990Z,23.40
2018-04-23T06:04:53.933Z,23.33
2018-04-23T06:05:54.137Z,23.36
2018-04-23T06:06:53.968Z,23.37
2018-04-23T06:07:54.051Z,23.25
2018-04-23T06:08:54.073Z,23.32
2018-04-23T06:09:54.008Z,23.32
2018-04-23T06:10:54.038Z,23.18
2018-04-23T06:11:54.060Z,23.28
2018-04-23T06:12:54.098Z,23.21
2018-04-23T06:13:54.084Z,23.29
2018-04-23T06:14:54.123Z,23.26
2018-04-23T06:15:54.114Z,23.33
2018-04-23T06:16:54.116Z,23.20
2018-04-23T06:17:54.168Z,23.26
2018-04-23T06:18:54.180Z,23.29
2018-04-23T06:19:54.199Z,23.28
2018-04-23T06:20:54.195Z,23.26
2018-04-23T06:21:54.201Z,23.18
2018-04-23T06:22:54.230Z,23.10
2018-04-23T06:23:54.294Z,23.08
2018-04-23T06:24:54.262Z,23.01
2018-04-23T06:25:54.250Z,23.01
2018-04-23T06:26:54.275Z,22.88
2018-04-23T06:27:54.294Z,22.83
2018-04-23T06:28:54.351Z,22.80
2018-04-23T06:29:54.311Z,22.93
2018-04-23T06:30:54.321Z,22.78
2018-04-23T06:31:54.351Z,22.74
2018-04-23T06:32:54.371Z,22.74
2018-04-23T06:33:54.424Z,22.78
2018-04-23T06:34:54.439Z,22.70
2018-04-23T06:35:54.419Z,22.73
2018-04-23T06:36:54.424Z,22.56
2018-04-23T06:37:54.435Z,22.52
2018-04-23T06:38:54.465Z,22.52
2018-04-23T06:39:54.504Z,22.43
2018-04-23T06:40:54.479Z,22.40
2018-04-23T06:41:54.505Z,22.38
2018-04-23T06:42:54.504Z,22.30
2018-04-23T06:43:54.550Z,22.25
2018-04-23T06:44:54.601Z,22.22
2018-04-23T06:45:54.579Z,22.25
2018-04-23T06:46:54.576Z,22.19
2018-04-23T06:47:54.588Z,22.16
2018-04-23T06:48:54.613Z,22.10
2018-04-23T06:49:54.639Z,22.07
2018-04-23T06:50:54.639Z,22.15
2018-04-23T06:51:54.630Z,22.04
2018-04-23T06:52:54.724Z,22.04
2018-04-23T06:53:54.662Z,22.07
2018-04-23T06:54:54.739Z,21.94
2018-04-23T06:55:54.711Z,21.94
2018-04-23T06:56:54.736Z,21.85
2018-04-23T06:57:54.739Z,21.85
2018-04-23T06:58:54.744Z,21.84
2018-04-23T06:59:54.795Z,21.83
2018-04-23T07:00:54.783Z,21.83
2018-04-23T07:01:54.791Z,21.78
2018-04-23T07:02:54.804Z,21.68
2018-04-23T07:03:54.851Z,21.77
2018-04-23T07:04:54.842Z,21.75
2018-04-23T07:05:54.856Z,21.81
2018-04-23T07:06:54.852Z,21.70
2018-04-23T07:07:54.866Z,21.65
2018-04-23T07:08:54.925Z,21.66
2018-04-23T07:09:54.937Z,21.63
2018-04-23T07:10:54.961Z,21.62
2018-04-23T07:11:54.941Z,21.59
2018-04-23T07:12:54.957Z,21.60
2018-04-23T07:13:54.965Z,21.62
2018-04-23T07:14:54.983Z,21.63
2018-04-23T07:15:55.021Z,21.63
2018-04-23T07:16:55.036Z,21.68
2018-04-23T07:17:55.035Z,21.65
2018-04-23T07:18:55.039Z,21.70
2018-04-23T07:19:55.049Z,21.74
2018-04-23T07:20:55.051Z,21.65
2018-04-23T07:21:55.136Z,21.66
2018-04-23T07:22:55.094Z,21.68
2018-04-23T07:23:55.101Z,21.68
2018-04-23T07:24:55.110Z,21.72
2018-04-23T07:25:55.152Z,21.68
2018-04-23T07:26:55.180Z,21.80
2018-04-23T07:27:55.179Z,21.77
2018-04-23T07:28:55.173Z,21.81
2018-04-23T07:29:55.215Z,21.78
2018-04-23T07:30:55.195Z,21.80
2018-04-23T07:31:55.260Z,21.85
2018-04-23T07:32:55.220Z,21.91
2018-04-23T07:33:55.280Z,21.85
2018-04-23T07:34:55.277Z,21.94
2018-04-23T07:35:55.269Z,21.96
2018-04-23T07:36:55.298Z,22.01
2018-04-23T07:37:55.306Z,21.94
2018-04-23T07:38:55.338Z,21.99
2018-04-23T07:39:55.365Z,22.00
2018-04-23T07:40:55.349Z,22.12
2018-04-23T07:41:55.355Z,22.04
2018-04-23T07:42:55.392Z,22.14
2018-04-23T07:43:55.431Z,22.23
2018-04-23T07:44:55.466Z,22.12
2018-04-23T07:45:55.430Z,22.23
2018-04-23T07:46:55.436Z,22.22
2018-04-23T07:47:55.470Z,22.22
2018-04-23T07:48:55.466Z,22.21
2018-04-23T07:49:55.533Z,22.25
2018-04-23T07:50:55.483Z,22.31
2018-04-23T07:51:55.536Z,22.26
2018-04-23T07:52:55.533Z,22.33
2018-04-23T07:53:55.544Z,22.33
2018-04-23T07:54:55.590Z,22.31
2018-04-23T07:55:55.624Z,22.33
2018-04-23T07:56:55.609Z,22.36
2018-04-23T07:57:55.615Z,22.26
2018-04-23T07:58:55.597Z,22.38
2018-04-23T07:59:55.672Z,22.33
2018-04-23T08:00:55.710Z,22.34
2018-04-23T08:01:55.644Z,22.38
2018-04-23T08:02:55.713Z,22.36
2018-04-23T08:03:55.664Z,22.40
2018-04-23T08:04:55.692Z,22.40
2018-04-23T08:05:55.744Z,22.37
2018-04-23T08:06:55.802Z,22.38
2018-04-23T08:07:55.778Z,22.38
2018-04-23T08:08:55.748Z,22.41
2018-04-23T08:09:55.770Z,22.37
2018-04-23T08:10:55.774Z,22.40
2018-04-23T08:11:55.786Z,22.36
2018-04-23T08:12:55.893Z,22.40
2018-04-23T08:13:55.817Z,22.33
2018-04-23T08:14:55.837Z,22.34
2018-04-23T08:15:55.846Z,22.37
2018-04-23T08:16:55.864Z,22.40
2018-04-23T08:17:55.949Z,22.44
2018-04-23T08:18:55.938Z,22.47
2018-04-23T08:19:55.910Z,22.40
2018-04-23T08:20:55.948Z,22.40
2018-04-23T08:21:55.953Z,22.44
2018-04-23T08:22:55.991Z,22.52
2018-04-23T08:23:56.011Z,22.56
2018-04-23T08:24:56.020Z,22.62
2018-04-23T08:25:55.989Z,22.70
2018-04-23T08:26:56.042Z,22.71
2018-04-23T08:27:56.026Z,22.71
2018-04-23T08:28:56.100Z,22.77
2018-04-23T08:29:56.056Z,22.78
2018-04-23T08:30:56.100Z,22.77
2018-04-23T08:31:56.114Z,22.81
2018-04-23T08:32:56.134Z,22.78
2018-04-23T08:33:56.113Z,22.89
2018-04-23T08:34:56.137Z,22.89
2018-04-23T08:35:56.175Z,22.93
2018-04-23T08:36:56.198Z,22.92
2018-04-23T08:37:56.165Z,22.96
2018-04-23T08:38:56.213Z,22.96
2018-04-23T08:39:56.202Z,22.96
2018-04-23T08:40:56.249Z,23.04
2018-04-23T08:41:56.278Z,23.02
2018-04-23T08:42:56.277Z,22.99
2018-04-23T08:43:56.278Z,23.11
2018-04-23T08:44:56.274Z,23.11
2018-04-23T08:45:56.291Z,23.07
2018-04-23T08:46:56.361Z,23.18
2018-04-23T08:47:56.358Z,23.23
2018-04-23T08:48:56.383Z,23.18
2018-04-23T08:49:56.351Z,23.37
2018-04-23T08:50:56.363Z,23.32
2018-04-23T08:51:56.429Z,23.32
2018-04-23T08:52:56.409Z,23.52
2018-04-23T08:53:56.505Z,23.42
2018-04-23T08:54:56.447Z,23.40
2018-04-23T08:55:56.469Z,23.49
2018-04-23T08:56:56.487Z,23.54
2018-04-23T08:57:56.475Z,23.59
2018-04-23T08:58:56.592Z,23.63
2018-04-23T08:59:56.561Z,23.70
2018-04-23T09:00:56.520Z,23.70
2018-04-23T09:01:56.543Z,23.81
2018-04-23T09:02:56.565Z,23.91
2018-04-23T09:03:56.585Z,23.85
2018-04-23T09:04:56.660Z,23.86
2018-04-23T09:05:56.682Z,23.86
2018-04-23T09:06:56.651Z,23.85
2018-04-23T09:07:56.642Z,23.73
2018-04-23T09:08:56.652Z,23.77
2018-04-23T09:09:56.690Z,23.91
2018-04-23T09:10:56.724Z,23.77
2018-04-23T09:11:56.734Z,23.84
2018-04-23T09:12:56.716Z,23.84
2018-04-23T09:13:56.728Z,23.84
2018-04-23T09:14:56.751Z,23.91
2018-04-23T09:15:56.759Z,23.91
2018-04-23T09:16:56.824Z,23.82
2018-04-23T09:17:56.849Z,23.74
2018-04-23T09:18:56.841Z,23.70
2018-04-23T09:19:56.811Z,23.71
2018-04-23T09:20:56.848Z,23.70
2018-04-23T09:21:56.883Z,23.66
2018-04-23T09:22:56.899Z,23.63
2018-04-23T09:23:56.941Z,23.59
2018-04-23T09:24:56.922Z,23.56
2018-04-23T09:25:56.927Z,23.56
2018-04-23T09:26:56.988Z,23.51
2018-04-23T09:27:56.943Z,23.52
2018-04-23T09:28:56.976Z,23.52
2018-04-23T09:29:56.988Z,23.45
2018-04-23T09:30:56.984Z,23.49
2018-04-23T09:31:57.045Z,23.36
2018-04-23T09:32:57.076Z,23.54
2018-04-23T09:33:57.045Z,23.40
2018-04-23T09:34:57.049Z,23.34
2018-04-23T09:35:57.105Z,23.48
2018-04-23T09:36:57.080Z,23.39
2018-04-23T09:37:57.110Z,23.36
2018-04-23T09:38:57.119Z,23.37
2018-04-23T09:39:57.205Z,23.44
2018-04-23T09:40:57.236Z,23.42
2018-04-23T09:41:57.181Z,23.44
2018-04-23T09:42:57.172Z,23.40
2018-04-23T09:43:57.213Z,23.39
2018-04-23T09:44:57.217Z,23.49
2018-04-23T09:45:57.271Z,23.49
2018-04-23T09:46:57.284Z,23.45
2018-04-23T09:47:57.281Z,23.55
2018-04-23T09:48:57.283Z,23.48
2018-04-23T09:49:57.275Z,23.51
2018-04-23T09:50:57.302Z,23.39
2018-04-23T09:51:57.393Z,23.48
2018-04-23T09:52:57.332Z,23.44
2018-04-23T09:53:57.362Z,23.33
2018-04-23T09:54:57.369Z,23.26
2018-04-23T09:55:57.395Z,23.28
2018-04-23T09:56:57.446Z,23.26
2018-04-23T09:57:57.448Z,23.23
2018-04-23T09:58:57.460Z,23.28
2018-04-23T09:59:57.436Z,23.25
2018-04-23T10:00:57.450Z,23.26
2018-04-23T10:01:57.501Z,23.28
2018-04-23T10:02:57.546Z,23.26
2018-04-23T10:03:57.546Z,23.23
2018-04-23T10:04:57.507Z,23.28
2018-04-23T10:05:57.521Z,23.20
2018-04-23T10:06:57.544Z,23.18
2018-04-23T10:07:57.568Z,23.26
2018-04-23T10:08:57.627Z,23.18
2018-04-23T10:09:57.615Z,23.17
2018-04-23T10:10:57.604Z,23.21
2018-04-23T10:11:57.615Z,23.17
2018-04-23T10:12:57.649Z,23.16
2018-04-23T10:13:57.738Z,23.10
2018-04-23T10:14:57.696Z,23.17
2018-04-23T10:15:57.691Z,23.08
2018-04-23T10:16:57.696Z,23.01
2018-04-23T10:17:57.735Z,22.89
2018-04-23T10:18:57.717Z,22.77
2018-04-23T10:19:57.775Z,22.80
2018-04-23T10:20:57.810Z,22.80
2018-04-23T10:21:57.767Z,22.84
2018-04-23T10:22:57.780Z,22.92
2018-04-23T10:23:57.797Z,22.78
2018-04-23T10:24:57.865Z,22.80
2018-04-23T10:25:57.856Z,22.80
2018-04-23T10:26:57.885Z,22.77
2018-04-23T10:27:57.870Z,22.76
2018-04-23T10:28:57.907Z,22.71
2018-04-23T10:29:57.911Z,22.59
2018-04-23T10:30:57.899Z,22.61
2018-04-23T10:31:57.948Z,22.62
2018-04-23T10:32:57.965Z,22.63
2018-04-23T10:33:57.952Z,22.61
2018-04-23T10:34:57.960Z,22.63
2018-04-23T10:35:57.984Z,22.67
2018-04-23T10:36:58.073Z,22.58
2018-04-23T10:37:58.023Z,22.56
2018-04-23T10:38:58.041Z,22.47
2018-04-23T10:39:58.058Z,22.56
2018-04-23T10:40:58.052Z,22.62
2018-04-23T10:41:58.115Z,22.62
2018-04-23T10:42:58.125Z,22.51
2018-04-23T10:43:58.117Z,22.52
2018-04-23T10:44:58.135Z,22.46
2018-04-23T10:45:58.146Z,22.49
2018-04-23T10:46:58.155Z,22.52
2018-04-23T10:47:58.224Z,22.44
2018-04-23T10:48:58.168Z,22.47
2018-04-23T10:49:58.189Z,22.46
2018-04-23T10:50:58.242Z,22.49
2018-04-23T10:51:58.241Z,22.51
2018-04-23T10:52:58.303Z,22.51
2018-04-23T10:53:58.302Z,22.51
2018-04-23T10:54:58.305Z,22.51
2018-04-23T10:55:58.283Z,22.52
2018-04-23T10:56:58.308Z,22.62
2018-04-23T10:57:58.330Z,22.52
2018-04-23T10:58:58.372Z,22.67
2018-04-23T10:59:58.389Z,22.65
2018-04-23T11:00:58.357Z,22.70
2018-04-23T11:01:58.379Z,22.77
2018-04-23T11:02:58.437Z,22.78
2018-04-23T11:03:58.404Z,22.80
2018-04-23T11:04:58.487Z,22.84
2018-04-23T11:05:58.459Z,22.91
2018-04-23T11:06:58.445Z,22.84
2018-04-23T11:07:58.464Z,22.88
2018-04-23T11:08:58.469Z,22.80
2018-04-23T11:09:58.531Z,22.91
2018-04-23T11:10:58.539Z,22.99
2018-04-23T11:11:58.522Z,23.08
2018-04-23T11:12:58.539Z,22.99
2018-04-23T11:13:58.574Z,23.11
2018-04-23T11:14:58.572Z,23.06
2018-04-23T11:15:58.622Z,23.08
2018-04-23T11:16:58.601Z,23.07
2018-04-23T11:17:58.615Z,23.20
2018-04-23T11:18:58.628Z,23.20
2018-04-23T11:19:58.680Z,23.20
2018-04-23T11:20:58.716Z,23.25
2018-04-23T11:21:58.704Z,23.28
2018-04-23T11:22:58.694Z,23.26
2018-04-23T11:23:58.721Z,23.26
2018-04-23T11:24:58.733Z,23.21
2018-04-23T11:25:58.783Z,23.36
2018-04-23T11:26:58.773Z,23.42
2018-04-23T11:27:58.763Z,23.42
2018-04-23T11:28:58.825Z,23.29
2018-04-23T11:29:58.795Z,23.36
2018-04-23T11:30:58.854Z,23.36
2018-04-23T11:31:58.882Z,23.36
2018-04-23T11:32:58.836Z,23.32
2018-04-23T11:33:58.869Z,23.32
2018-04-23T11:34:58.892Z,23.28
2018-04-23T11:35:58.906Z,23.34
2018-04-23T11:36:58.979Z,23.32
2018-04-23T11:37:58.937Z,23.26
2018-04-23T11:38:58.956Z,23.26
2018-04-23T11:39:58.968Z,23.33
2018-04-23T11:40:59.000Z,23.28
2018-04-23T11:41:59.059Z,23.32
2018-04-23T11:42:59.025Z,23.32
2018-04-23T11:43:59.041Z,23.28
2018-04-23T11:44:59.126Z,23.20
2018-04-23T11:45:59.038Z,23.28
2018-04-23T11:46:59.064Z,23.32
2018-04-23T11:47:59.079Z,23.28
2018-04-23T11:48:59.117Z,23.16
2018-04-23T11:49:59.102Z,23.14
2018-04-23T11:50:59.133Z,23.17
2018-04-23T11:51:59.167Z,23.08
2018-04-23T11:52:59.200Z,23.07
2018-04-23T11:53:59.204Z,23.10
2018-04-23T11:54:59.224Z,23.20
2018-04-23T11:55:59.236Z,23.10
2018-04-23T11:56:59.246Z,23.10
2018-04-23T11:57:59.242Z,23.07
2018-04-23T11:58:59.247Z,23.08
2018-04-23T11:59:59.284Z,23.04
2018-04-23T12:00:59.317Z,22.98
2018-04-23T12:01:59.342Z,22.95
2018-04-23T12:02:59.317Z,22.99
2018-04-23T12:03:59.325Z,23.02
2018-04-23T12:04:59.341Z,22.99
2018-04-23T12:05:59.358Z,22.99
2018-04-23T12:06:59.402Z,22.98
2018-04-23T12:07:59.444Z,22.95
2018-04-23T12:08:59.420Z,22.92
2018-04-23T12:09:59.422Z,22.88
2018-04-23T12:10:59.418Z,22.89
2018-04-23T12:11:59.443Z,22.95
2018-04-23T12:12:59.536Z,22.95
2018-04-23T12:13:59.481Z,22.95
2018-04-23T12:14:59.502Z,22.93
2018-04-23T12:15:59.523Z,23.02
2018-04-23T12:16:59.531Z,22.95
2018-04-23T12:17:59.559Z,22.93
2018-04-23T12:18:59.549Z,22.98
2018-04-23T12:19:59.558Z,22.99
2018-04-23T12:20:59.613Z,23.01
2018-04-23T12:21:59.610Z,22.98
2018-04-23T12:22:59.645Z,22.93
2018-04-23T12:23:59.635Z,22.96
2018-04-23T12:24:59.711Z,23.04
2018-04-23T12:25:59.668Z,23.01
2018-04-23T12:26:59.669Z,23.06
2018-04-23T12:27:59.713Z,23.07
2018-04-23T12:28:59.703Z,23.06
2018-04-23T12:29:59.768Z,23.07
2018-04-23T12:30:59.775Z,23.16
2018-04-23T12:31:59.795Z,23.13
2018-04-23T12:32:59.754Z,23.23
2018-04-23T12:33:59.787Z,23.21
2018-04-23T12:34:59.887Z,23.10
2018-04-23T12:35:59.824Z,23.18
2018-04-23T12:36:59.825Z,23.29
2018-04-23T12:37:59.841Z,23.21
2018-04-23T12:38:59.841Z,23.25
2018-04-23T12:39:59.917Z,23.26
2018-04-23T12:40:59.902Z,23.29
2018-04-23T12:41:59.896Z,23.33
2018-04-23T12:42:59.917Z,23.36
2018-04-23T12:43:59.923Z,23.32
2018-04-23T12:44:59.966Z,23.44
2018-04-23T12:46:00.041Z,23.37
2018-04-23T12:47:00.030Z,23.44
2018-04-23T12:47:59.995Z,23.54
2018-04-23T12:48:59.990Z,23.48
2018-04-23T12:50:00.010Z,23.52
2018-04-23T12:51:00.073Z,23.45
2018-04-23T12:52:00.085Z,23.47
2018-04-23T12:53:00.100Z,23.47